sensor_id;sensor_type;location;lat;lon;timestamp;temperature;humidity
11009;DHT22;5557;51.670;7.788;2023-08-07T00:02:16;13.10;99.90
11009;DHT22;5557;51.670;7.788;2023-08-07T00:04:43;13.10;99.90
11009;DHT22;5557;51.670;7.788;2023-08-07T00:07:10;13.10;99.90
11009;DHT22;5557;51.670;7.788;2023-08-07T00:09:37;13.10;99.90
11009;DHT22;5557;51.670;7.788;2023-08-07T00:12:04;13.10;99.90
11009;DHT22;5557;51.670;7.788;2023-08-07T00:14:31;13.10;99.90
11009;DHT22;5557;51.670;7.788;2023-08-07T00:16:58;13.10;99.90
11009;DHT22;5557;51.670;7.788;2023-08-07T00:19:25;13.10;99.90
11009;DHT22;5557;51.670;7.788;2023-08-07T00:21:52;13.10;99.90
11009;DHT22;5557;51.670;7.788;2023-08-07T00:24:19;13.10;99.90
11009;DHT22;5557;51.670;7.788;2023-08-07T00:26:46;13.10;99.90
11009;DHT22;5557;51.670;7.788;2023-08-07T00:29:13;13.10;99.90
11009;DHT22;5557;51.670;7.788;2023-08-07T00:31:40;13.10;99.90
11009;DHT22;5557;51.670;7.788;2023-08-07T00:34:07;13.10;99.90
11009;DHT22;5557;51.670;7.788;2023-08-07T00:36:34;13.10;99.90
11009;DHT22;5557;51.670;7.788;2023-08-07T00:39:02;13.10;99.90
11009;DHT22;5557;51.670;7.788;2023-08-07T00:41:32;13.10;99.90
11009;DHT22;5557;51.670;7.788;2023-08-07T00:43:58;13.10;99.90
11009;DHT22;5557;51.670;7.788;2023-08-07T00:46:26;13.10;99.90
11009;DHT22;5557;51.670;7.788;2023-08-07T00:48:54;13.10;99.90
11009;DHT22;5557;51.670;7.788;2023-08-07T00:51:23;13.10;99.90
11009;DHT22;5557;51.670;7.788;2023-08-07T00:53:50;13.10;99.90
11009;DHT22;5557;51.670;7.788;2023-08-07T00:56:18;13.10;99.90
11009;DHT22;5557;51.670;7.788;2023-08-07T00:58:45;13.10;99.90
11009;DHT22;5557;51.670;7.788;2023-08-07T01:01:12;13.10;99.90
11009;DHT22;5557;51.670;7.788;2023-08-07T01:03:39;13.10;99.90
11009;DHT22;5557;51.670;7.788;2023-08-07T01:06:07;13.10;99.90
11009;DHT22;5557;51.670;7.788;2023-08-07T01:08:34;13.10;99.90
11009;DHT22;5557;51.670;7.788;2023-08-07T01:11:24;13.10;99.90
11009;DHT22;5557;51.670;7.788;2023-08-07T01:14:33;13.10;99.90
11009;DHT22;5557;51.670;7.788;2023-08-07T01:17:15;13.20;99.90
11009;DHT22;5557;51.670;7.788;2023-08-07T01:19:43;13.20;99.90
11009;DHT22;5557;51.670;7.788;2023-08-07T01:22:15;13.20;99.90
11009;DHT22;5557;51.670;7.788;2023-08-07T01:24:44;13.20;99.90
11009;DHT22;5557;51.670;7.788;2023-08-07T01:27:48;13.20;99.90
11009;DHT22;5557;51.670;7.788;2023-08-07T01:30:35;13.20;99.90
11009;DHT22;5557;51.670;7.788;2023-08-07T01:33:18;13.30;99.90
11009;DHT22;5557;51.670;7.788;2023-08-07T01:35:52;13.30;99.90
11009;DHT22;5557;51.670;7.788;2023-08-07T01:38:21;13.30;99.90
11009;DHT22;5557;51.670;7.788;2023-08-07T01:40:50;13.30;99.90
11009;DHT22;5557;51.670;7.788;2023-08-07T01:43:17;13.40;99.90
11009;DHT22;5557;51.670;7.788;2023-08-07T01:45:46;13.40;99.90
11009;DHT22;5557;51.670;7.788;2023-08-07T01:48:12;13.40;99.90
11009;DHT22;5557;51.670;7.788;2023-08-07T01:50:40;13.40;99.90
11009;DHT22;5557;51.670;7.788;2023-08-07T01:53:06;13.40;99.90
11009;DHT22;5557;51.670;7.788;2023-08-07T01:55:34;13.40;99.90
11009;DHT22;5557;51.670;7.788;2023-08-07T01:58:01;13.40;99.90
11009;DHT22;5557;51.670;7.788;2023-08-07T02:00:29;13.30;99.90
11009;DHT22;5557;51.670;7.788;2023-08-07T02:02:56;13.40;99.90
11009;DHT22;5557;51.670;7.788;2023-08-07T02:05:23;13.30;99.90
11009;DHT22;5557;51.670;7.788;2023-08-07T02:07:50;13.30;99.90
11009;DHT22;5557;51.670;7.788;2023-08-07T02:10:17;13.30;99.90
11009;DHT22;5557;51.670;7.788;2023-08-07T02:12:44;13.30;99.90
11009;DHT22;5557;51.670;7.788;2023-08-07T02:15:11;13.30;99.90
11009;DHT22;5557;51.670;7.788;2023-08-07T02:17:38;13.30;99.90
11009;DHT22;5557;51.670;7.788;2023-08-07T02:20:08;13.20;99.90
11009;DHT22;5557;51.670;7.788;2023-08-07T02:22:35;13.30;99.90
11009;DHT22;5557;51.670;7.788;2023-08-07T02:25:03;13.20;99.90
11009;DHT22;5557;51.670;7.788;2023-08-07T02:27:30;13.20;99.90
11009;DHT22;5557;51.670;7.788;2023-08-07T02:29:56;13.20;99.90
11009;DHT22;5557;51.670;7.788;2023-08-07T02:32:23;13.20;99.90
11009;DHT22;5557;51.670;7.788;2023-08-07T02:34:53;13.20;99.90
11009;DHT22;5557;51.670;7.788;2023-08-07T02:37:19;13.20;99.90
11009;DHT22;5557;51.670;7.788;2023-08-07T02:39:47;13.20;99.90
11009;DHT22;5557;51.670;7.788;2023-08-07T02:42:14;13.10;99.90
11009;DHT22;5557;51.670;7.788;2023-08-07T02:44:41;13.20;99.90
11009;DHT22;5557;51.670;7.788;2023-08-07T02:47:08;13.10;99.90
11009;DHT22;5557;51.670;7.788;2023-08-07T02:49:35;13.10;99.90
11009;DHT22;5557;51.670;7.788;2023-08-07T02:52:05;13.10;99.90
11009;DHT22;5557;51.670;7.788;2023-08-07T02:54:32;13.10;99.90
11009;DHT22;5557;51.670;7.788;2023-08-07T02:56:59;13.10;99.90
11009;DHT22;5557;51.670;7.788;2023-08-07T02:59:27;13.00;99.90
11009;DHT22;5557;51.670;7.788;2023-08-07T03:01:54;13.00;99.90
11009;DHT22;5557;51.670;7.788;2023-08-07T03:04:23;13.00;99.90
11009;DHT22;5557;51.670;7.788;2023-08-07T03:06:50;13.00;99.90
11009;DHT22;5557;51.670;7.788;2023-08-07T03:09:22;13.00;99.90
11009;DHT22;5557;51.670;7.788;2023-08-07T03:11:49;13.00;99.90
11009;DHT22;5557;51.670;7.788;2023-08-07T03:14:16;13.00;99.90
11009;DHT22;5557;51.670;7.788;2023-08-07T03:16:45;13.00;99.90
11009;DHT22;5557;51.670;7.788;2023-08-07T03:19:12;13.00;99.90
11009;DHT22;5557;51.670;7.788;2023-08-07T03:21:43;13.00;99.90
11009;DHT22;5557;51.670;7.788;2023-08-07T03:24:11;13.00;99.90
11009;DHT22;5557;51.670;7.788;2023-08-07T03:26:42;13.00;99.90
11009;DHT22;5557;51.670;7.788;2023-08-07T03:29:09;13.00;99.90
11009;DHT22;5557;51.670;7.788;2023-08-07T03:31:35;13.00;99.90
11009;DHT22;5557;51.670;7.788;2023-08-07T03:34:05;13.00;99.90
11009;DHT22;5557;51.670;7.788;2023-08-07T03:36:32;13.00;99.90
11009;DHT22;5557;51.670;7.788;2023-08-07T03:38:59;13.00;99.90
11009;DHT22;5557;51.670;7.788;2023-08-07T03:41:26;13.00;99.90
11009;DHT22;5557;51.670;7.788;2023-08-07T03:43:53;13.00;99.90
11009;DHT22;5557;51.670;7.788;2023-08-07T03:46:20;13.00;99.90
11009;DHT22;5557;51.670;7.788;2023-08-07T03:48:47;13.10;99.90
11009;DHT22;5557;51.670;7.788;2023-08-07T03:51:16;13.10;99.90
11009;DHT22;5557;51.670;7.788;2023-08-07T03:53:43;13.10;99.90
11009;DHT22;5557;51.670;7.788;2023-08-07T03:56:12;13.10;99.90
11009;DHT22;5557;51.670;7.788;2023-08-07T03:58:39;13.00;99.90
11009;DHT22;5557;51.670;7.788;2023-08-07T04:01:06;13.10;99.90
11009;DHT22;5557;51.670;7.788;2023-08-07T04:03:35;13.10;99.90
11009;DHT22;5557;51.670;7.788;2023-08-07T04:06:03;13.10;99.90
11009;DHT22;5557;51.670;7.788;2023-08-07T04:08:32;13.10;99.90
11009;DHT22;5557;51.670;7.788;2023-08-07T04:11:03;13.10;99.90
11009;DHT22;5557;51.670;7.788;2023-08-07T04:13:32;13.10;99.90
11009;DHT22;5557;51.670;7.788;2023-08-07T04:16:04;13.10;99.90
11009;DHT22;5557;51.670;7.788;2023-08-07T04:18:33;13.10;99.90
11009;DHT22;5557;51.670;7.788;2023-08-07T04:21:02;13.10;99.90
11009;DHT22;5557;51.670;7.788;2023-08-07T04:23:32;13.10;99.90
11009;DHT22;5557;51.670;7.788;2023-08-07T04:26:03;13.10;99.90
11009;DHT22;5557;51.670;7.788;2023-08-07T04:28:30;13.10;99.90
11009;DHT22;5557;51.670;7.788;2023-08-07T04:30:57;13.10;99.90
11009;DHT22;5557;51.670;7.788;2023-08-07T04:33:26;13.00;99.90
11009;DHT22;5557;51.670;7.788;2023-08-07T04:35:56;13.00;99.90
11009;DHT22;5557;51.670;7.788;2023-08-07T04:38:23;13.00;99.90
11009;DHT22;5557;51.670;7.788;2023-08-07T04:40:50;13.10;99.90
11009;DHT22;5557;51.670;7.788;2023-08-07T04:43:18;13.10;99.90
11009;DHT22;5557;51.670;7.788;2023-08-07T04:45:48;13.10;99.90
11009;DHT22;5557;51.670;7.788;2023-08-07T04:48:16;13.10;99.90
11009;DHT22;5557;51.670;7.788;2023-08-07T04:50:44;13.10;99.90
11009;DHT22;5557;51.670;7.788;2023-08-07T04:53:11;13.10;99.90
11009;DHT22;5557;51.670;7.788;2023-08-07T04:55:39;13.10;99.90
11009;DHT22;5557;51.670;7.788;2023-08-07T04:58:06;13.10;99.90
11009;DHT22;5557;51.670;7.788;2023-08-07T05:00:32;13.10;99.90
11009;DHT22;5557;51.670;7.788;2023-08-07T05:02:59;13.10;99.90
11009;DHT22;5557;51.670;7.788;2023-08-07T05:05:28;13.10;99.90
11009;DHT22;5557;51.670;7.788;2023-08-07T05:07:57;13.10;99.90
11009;DHT22;5557;51.670;7.788;2023-08-07T05:10:24;13.10;99.90
11009;DHT22;5557;51.670;7.788;2023-08-07T05:12:51;13.10;99.90
11009;DHT22;5557;51.670;7.788;2023-08-07T05:15:25;13.00;99.90
11009;DHT22;5557;51.670;7.788;2023-08-07T05:17:52;13.00;99.90
11009;DHT22;5557;51.670;7.788;2023-08-07T05:20:19;13.00;99.90
11009;DHT22;5557;51.670;7.788;2023-08-07T05:22:46;13.00;99.90
11009;DHT22;5557;51.670;7.788;2023-08-07T05:25:15;13.00;99.90
11009;DHT22;5557;51.670;7.788;2023-08-07T05:27:43;13.00;99.90
11009;DHT22;5557;51.670;7.788;2023-08-07T05:30:11;13.00;99.90
11009;DHT22;5557;51.670;7.788;2023-08-07T05:32:38;13.00;99.90
11009;DHT22;5557;51.670;7.788;2023-08-07T05:35:06;13.00;99.90
11009;DHT22;5557;51.670;7.788;2023-08-07T05:37:34;13.00;99.90
11009;DHT22;5557;51.670;7.788;2023-08-07T05:40:01;13.00;99.90
11009;DHT22;5557;51.670;7.788;2023-08-07T05:42:28;13.00;99.90
11009;DHT22;5557;51.670;7.788;2023-08-07T05:44:55;13.10;99.90
11009;DHT22;5557;51.670;7.788;2023-08-07T05:47:22;13.10;99.90
11009;DHT22;5557;51.670;7.788;2023-08-07T05:49:49;13.10;99.90
11009;DHT22;5557;51.670;7.788;2023-08-07T05:52:17;13.00;99.90
11009;DHT22;5557;51.670;7.788;2023-08-07T05:54:44;13.10;99.90
11009;DHT22;5557;51.670;7.788;2023-08-07T05:57:11;13.10;99.90
11009;DHT22;5557;51.670;7.788;2023-08-07T05:59:38;13.10;99.90
11009;DHT22;5557;51.670;7.788;2023-08-07T06:02:07;13.10;99.90
11009;DHT22;5557;51.670;7.788;2023-08-07T06:04:34;13.10;99.90
11009;DHT22;5557;51.670;7.788;2023-08-07T06:07:00;13.10;99.90
11009;DHT22;5557;51.670;7.788;2023-08-07T06:09:28;13.10;99.90
11009;DHT22;5557;51.670;7.788;2023-08-07T06:11:55;13.10;99.90
11009;DHT22;5557;51.670;7.788;2023-08-07T06:14:22;13.10;99.90
11009;DHT22;5557;51.670;7.788;2023-08-07T06:16:52;13.10;99.90
11009;DHT22;5557;51.670;7.788;2023-08-07T06:19:19;13.10;99.90
11009;DHT22;5557;51.670;7.788;2023-08-07T06:21:58;13.10;99.90
11009;DHT22;5557;51.670;7.788;2023-08-07T06:24:25;13.10;99.90
11009;DHT22;5557;51.670;7.788;2023-08-07T06:26:52;13.10;99.90
11009;DHT22;5557;51.670;7.788;2023-08-07T06:29:20;13.10;99.90
11009;DHT22;5557;51.670;7.788;2023-08-07T06:31:47;13.10;99.90
11009;DHT22;5557;51.670;7.788;2023-08-07T06:34:14;13.10;99.90
11009;DHT22;5557;51.670;7.788;2023-08-07T06:36:41;13.10;99.90
11009;DHT22;5557;51.670;7.788;2023-08-07T06:39:08;13.20;99.90
11009;DHT22;5557;51.670;7.788;2023-08-07T06:41:35;13.30;99.90
11009;DHT22;5557;51.670;7.788;2023-08-07T06:44:02;13.30;99.90
11009;DHT22;5557;51.670;7.788;2023-08-07T06:46:29;13.30;99.90
11009;DHT22;5557;51.670;7.788;2023-08-07T06:48:56;13.30;99.90
11009;DHT22;5557;51.670;7.788;2023-08-07T06:51:23;13.40;99.90
11009;DHT22;5557;51.670;7.788;2023-08-07T06:53:50;13.40;99.90
11009;DHT22;5557;51.670;7.788;2023-08-07T06:56:17;13.50;99.90
11009;DHT22;5557;51.670;7.788;2023-08-07T06:58:44;13.50;99.90
11009;DHT22;5557;51.670;7.788;2023-08-07T07:01:11;13.40;99.90
11009;DHT22;5557;51.670;7.788;2023-08-07T07:03:38;13.50;99.90
11009;DHT22;5557;51.670;7.788;2023-08-07T07:06:05;13.60;99.90
11009;DHT22;5557;51.670;7.788;2023-08-07T07:08:32;13.50;99.90
11009;DHT22;5557;51.670;7.788;2023-08-07T07:10:59;13.50;99.90
11009;DHT22;5557;51.670;7.788;2023-08-07T07:13:26;13.50;99.90
11009;DHT22;5557;51.670;7.788;2023-08-07T07:15:54;13.60;99.90
11009;DHT22;5557;51.670;7.788;2023-08-07T07:18:21;13.70;99.90
11009;DHT22;5557;51.670;7.788;2023-08-07T07:20:56;13.70;99.90
11009;DHT22;5557;51.670;7.788;2023-08-07T07:23:23;13.80;99.90
11009;DHT22;5557;51.670;7.788;2023-08-07T07:25:50;13.80;99.90
11009;DHT22;5557;51.670;7.788;2023-08-07T07:28:16;13.80;99.90
11009;DHT22;5557;51.670;7.788;2023-08-07T07:30:46;13.90;99.90
11009;DHT22;5557;51.670;7.788;2023-08-07T07:33:13;13.80;99.90
11009;DHT22;5557;51.670;7.788;2023-08-07T07:35:40;13.90;99.90
11009;DHT22;5557;51.670;7.788;2023-08-07T07:38:07;13.90;99.90
11009;DHT22;5557;51.670;7.788;2023-08-07T07:40:34;14.00;99.90
11009;DHT22;5557;51.670;7.788;2023-08-07T07:43:02;14.00;99.90
11009;DHT22;5557;51.670;7.788;2023-08-07T07:45:29;14.10;99.90
11009;DHT22;5557;51.670;7.788;2023-08-07T07:47:56;14.20;99.90
11009;DHT22;5557;51.670;7.788;2023-08-07T07:50:23;14.20;99.90
11009;DHT22;5557;51.670;7.788;2023-08-07T07:52:50;14.30;99.90
11009;DHT22;5557;51.670;7.788;2023-08-07T07:55:17;14.30;99.90
11009;DHT22;5557;51.670;7.788;2023-08-07T07:57:44;14.30;99.90
11009;DHT22;5557;51.670;7.788;2023-08-07T08:00:12;14.30;99.90
11009;DHT22;5557;51.670;7.788;2023-08-07T08:02:40;14.30;99.90
11009;DHT22;5557;51.670;7.788;2023-08-07T08:05:09;14.40;99.90
11009;DHT22;5557;51.670;7.788;2023-08-07T08:07:39;14.60;99.90
11009;DHT22;5557;51.670;7.788;2023-08-07T08:10:07;14.70;99.90
11009;DHT22;5557;51.670;7.788;2023-08-07T08:12:36;14.70;99.90
11009;DHT22;5557;51.670;7.788;2023-08-07T08:15:03;14.70;99.90
11009;DHT22;5557;51.670;7.788;2023-08-07T08:17:31;14.80;99.90
11009;DHT22;5557;51.670;7.788;2023-08-07T08:19:59;14.70;99.90
11009;DHT22;5557;51.670;7.788;2023-08-07T08:22:26;14.70;99.90
11009;DHT22;5557;51.670;7.788;2023-08-07T08:24:53;14.50;99.90
11009;DHT22;5557;51.670;7.788;2023-08-07T08:27:19;14.50;99.90
11009;DHT22;5557;51.670;7.788;2023-08-07T08:29:47;14.50;99.90
11009;DHT22;5557;51.670;7.788;2023-08-07T08:32:14;14.50;99.90
11009;DHT22;5557;51.670;7.788;2023-08-07T08:34:41;14.50;99.90
11009;DHT22;5557;51.670;7.788;2023-08-07T08:37:08;14.50;99.90
11009;DHT22;5557;51.670;7.788;2023-08-07T08:39:37;14.50;99.90
11009;DHT22;5557;51.670;7.788;2023-08-07T08:42:04;14.70;99.90
11009;DHT22;5557;51.670;7.788;2023-08-07T08:44:34;14.90;99.90
11009;DHT22;5557;51.670;7.788;2023-08-07T08:47:03;15.40;99.90
11009;DHT22;5557;51.670;7.788;2023-08-07T08:49:37;16.40;99.90
11009;DHT22;5557;51.670;7.788;2023-08-07T08:52:09;16.60;99.90
11009;DHT22;5557;51.670;7.788;2023-08-07T08:54:37;16.70;99.90
11009;DHT22;5557;51.670;7.788;2023-08-07T08:57:04;16.60;99.90
11009;DHT22;5557;51.670;7.788;2023-08-07T08:59:33;17.00;99.90
11009;DHT22;5557;51.670;7.788;2023-08-07T09:02:01;17.30;93.40
11009;DHT22;5557;51.670;7.788;2023-08-07T09:04:28;17.40;93.60
11009;DHT22;5557;51.670;7.788;2023-08-07T09:06:55;17.40;91.00
11009;DHT22;5557;51.670;7.788;2023-08-07T09:09:23;17.10;94.50
11009;DHT22;5557;51.670;7.788;2023-08-07T09:11:51;16.70;98.80
11009;DHT22;5557;51.670;7.788;2023-08-07T09:14:22;16.40;99.90
11009;DHT22;5557;51.670;7.788;2023-08-07T09:16:50;16.20;98.70
11009;DHT22;5557;51.670;7.788;2023-08-07T09:19:17;16.10;98.80
11009;DHT22;5557;51.670;7.788;2023-08-07T09:21:45;16.20;97.10
11009;DHT22;5557;51.670;7.788;2023-08-07T09:24:12;16.80;92.60
11009;DHT22;5557;51.670;7.788;2023-08-07T09:26:41;17.20;80.30
11009;DHT22;5557;51.670;7.788;2023-08-07T09:29:10;17.50;69.10
11009;DHT22;5557;51.670;7.788;2023-08-07T09:31:38;17.40;60.00
11009;DHT22;5557;51.670;7.788;2023-08-07T09:34:05;17.50;66.30
11009;DHT22;5557;51.670;7.788;2023-08-07T09:36:33;17.50;57.30
11009;DHT22;5557;51.670;7.788;2023-08-07T09:39:01;17.50;47.60
11009;DHT22;5557;51.670;7.788;2023-08-07T09:41:32;17.60;59.10
11009;DHT22;5557;51.670;7.788;2023-08-07T09:44:09;17.50;52.10
11009;DHT22;5557;51.670;7.788;2023-08-07T09:46:43;17.10;64.50
11009;DHT22;5557;51.670;7.788;2023-08-07T09:49:10;16.40;73.60
11009;DHT22;5557;51.670;7.788;2023-08-07T09:51:44;16.00;89.20
11009;DHT22;5557;51.670;7.788;2023-08-07T09:54:11;15.90;93.20
11009;DHT22;5557;51.670;7.788;2023-08-07T09:56:40;16.20;94.30
11009;DHT22;5557;51.670;7.788;2023-08-07T09:59:07;17.30;81.80
11009;DHT22;5557;51.670;7.788;2023-08-07T10:01:38;18.20;47.10
11009;DHT22;5557;51.670;7.788;2023-08-07T10:04:06;18.30;33.00
11009;DHT22;5557;51.670;7.788;2023-08-07T10:06:34;18.80;36.20
11009;DHT22;5557;51.670;7.788;2023-08-07T10:09:02;19.20;22.30
11009;DHT22;5557;51.670;7.788;2023-08-07T10:11:30;19.50;12.10
11009;DHT22;5557;51.670;7.788;2023-08-07T10:13:58;18.80;11.90
11009;DHT22;5557;51.670;7.788;2023-08-07T10:16:26;18.00;22.40
11009;DHT22;5557;51.670;7.788;2023-08-07T10:18:55;17.70;33.00
11009;DHT22;5557;51.670;7.788;2023-08-07T10:21:23;17.70;35.40
11009;DHT22;5557;51.670;7.788;2023-08-07T10:23:55;17.90;27.80
11009;DHT22;5557;51.670;7.788;2023-08-07T10:26:24;17.90;21.30
11009;DHT22;5557;51.670;7.788;2023-08-07T10:28:52;17.60;16.40
11009;DHT22;5557;51.670;7.788;2023-08-07T10:31:22;17.40;22.10
11009;DHT22;5557;51.670;7.788;2023-08-07T10:33:50;17.90;23.90
11009;DHT22;5557;51.670;7.788;2023-08-07T10:36:19;18.50;19.50
11009;DHT22;5557;51.670;7.788;2023-08-07T10:38:50;18.90;7.80
11009;DHT22;5557;51.670;7.788;2023-08-07T10:41:22;19.40;4.90
11009;DHT22;5557;51.670;7.788;2023-08-07T10:43:48;19.50;1.00
11009;DHT22;5557;51.670;7.788;2023-08-07T10:46:19;19.50;1.00
11009;DHT22;5557;51.670;7.788;2023-08-07T10:48:55;20.00;2.00
11009;DHT22;5557;51.670;7.788;2023-08-07T10:51:29;20.40;1.00
11009;DHT22;5557;51.670;7.788;2023-08-07T10:53:57;20.30;1.00
11009;DHT22;5557;51.670;7.788;2023-08-07T10:56:32;20.40;1.00
11009;DHT22;5557;51.670;7.788;2023-08-07T10:59:11;20.60;1.00
11009;DHT22;5557;51.670;7.788;2023-08-07T11:01:42;20.50;1.00
11009;DHT22;5557;51.670;7.788;2023-08-07T11:04:11;20.50;1.00
11009;DHT22;5557;51.670;7.788;2023-08-07T11:06:40;20.60;1.00
11009;DHT22;5557;51.670;7.788;2023-08-07T11:09:09;20.80;1.00
11009;DHT22;5557;51.670;7.788;2023-08-07T11:14:22;21.40;1.00
11009;DHT22;5557;51.670;7.788;2023-08-07T11:16:49;21.40;1.00
11009;DHT22;5557;51.670;7.788;2023-08-07T11:19:18;21.30;1.00
11009;DHT22;5557;51.670;7.788;2023-08-07T11:21:47;21.40;1.00
11009;DHT22;5557;51.670;7.788;2023-08-07T11:24:16;21.60;1.00
11009;DHT22;5557;51.670;7.788;2023-08-07T11:26:45;21.40;1.00
11009;DHT22;5557;51.670;7.788;2023-08-07T11:29:17;21.20;1.00
11009;DHT22;5557;51.670;7.788;2023-08-07T11:31:44;21.00;1.00
11009;DHT22;5557;51.670;7.788;2023-08-07T11:34:12;20.90;1.00
11009;DHT22;5557;51.670;7.788;2023-08-07T11:36:42;20.70;1.00
11009;DHT22;5557;51.670;7.788;2023-08-07T11:39:10;20.60;1.00
11009;DHT22;5557;51.670;7.788;2023-08-07T11:41:38;20.40;1.00
11009;DHT22;5557;51.670;7.788;2023-08-07T11:44:07;20.30;1.00
11009;DHT22;5557;51.670;7.788;2023-08-07T11:46:35;20.20;1.00
11009;DHT22;5557;51.670;7.788;2023-08-07T11:49:03;20.20;1.00
11009;DHT22;5557;51.670;7.788;2023-08-07T11:51:30;20.20;1.00
11009;DHT22;5557;51.670;7.788;2023-08-07T11:53:58;20.10;1.00
11009;DHT22;5557;51.670;7.788;2023-08-07T11:56:26;20.00;1.00
11009;DHT22;5557;51.670;7.788;2023-08-07T11:58:53;20.10;1.00
11009;DHT22;5557;51.670;7.788;2023-08-07T12:01:22;20.20;1.00
11009;DHT22;5557;51.670;7.788;2023-08-07T12:04:08;20.40;1.00
11009;DHT22;5557;51.670;7.788;2023-08-07T12:06:36;20.30;1.00
11009;DHT22;5557;51.670;7.788;2023-08-07T12:09:03;20.40;1.00
11009;DHT22;5557;51.670;7.788;2023-08-07T12:11:30;20.30;1.00
11009;DHT22;5557;51.670;7.788;2023-08-07T12:14:00;20.40;1.00
11009;DHT22;5557;51.670;7.788;2023-08-07T12:16:32;20.30;1.00
11009;DHT22;5557;51.670;7.788;2023-08-07T12:19:00;20.10;1.00
11009;DHT22;5557;51.670;7.788;2023-08-07T12:21:28;19.90;1.00
11009;DHT22;5557;51.670;7.788;2023-08-07T12:23:56;19.90;1.00
11009;DHT22;5557;51.670;7.788;2023-08-07T12:26:23;20.10;1.00
11009;DHT22;5557;51.670;7.788;2023-08-07T12:28:50;20.30;1.00
11009;DHT22;5557;51.670;7.788;2023-08-07T12:31:18;20.40;1.00
11009;DHT22;5557;51.670;7.788;2023-08-07T12:33:45;20.10;1.00
11009;DHT22;5557;51.670;7.788;2023-08-07T12:36:12;20.10;1.00
11009;DHT22;5557;51.670;7.788;2023-08-07T12:38:44;20.10;1.00
11009;DHT22;5557;51.670;7.788;2023-08-07T12:41:11;20.30;1.00
11009;DHT22;5557;51.670;7.788;2023-08-07T12:43:41;20.60;1.00
11009;DHT22;5557;51.670;7.788;2023-08-07T12:46:08;20.70;1.00
11009;DHT22;5557;51.670;7.788;2023-08-07T12:48:37;20.40;1.00
11009;DHT22;5557;51.670;7.788;2023-08-07T12:51:05;20.30;1.00
11009;DHT22;5557;51.670;7.788;2023-08-07T12:53:32;20.30;1.00
11009;DHT22;5557;51.670;7.788;2023-08-07T12:55:59;20.20;1.00
11009;DHT22;5557;51.670;7.788;2023-08-07T12:58:26;20.40;1.00
11009;DHT22;5557;51.670;7.788;2023-08-07T13:00:56;20.30;1.00
11009;DHT22;5557;51.670;7.788;2023-08-07T13:03:23;20.20;1.00
11009;DHT22;5557;51.670;7.788;2023-08-07T13:05:51;20.20;1.00
11009;DHT22;5557;51.670;7.788;2023-08-07T13:08:18;20.40;1.00
11009;DHT22;5557;51.670;7.788;2023-08-07T13:10:45;20.50;1.00
11009;DHT22;5557;51.670;7.788;2023-08-07T13:13:15;20.30;1.00
11009;DHT22;5557;51.670;7.788;2023-08-07T13:15:42;20.30;1.00
11009;DHT22;5557;51.670;7.788;2023-08-07T13:18:09;20.10;1.00
11009;DHT22;5557;51.670;7.788;2023-08-07T13:20:37;20.00;1.00
11009;DHT22;5557;51.670;7.788;2023-08-07T13:23:04;20.10;1.00
11009;DHT22;5557;51.670;7.788;2023-08-07T13:25:33;20.10;1.00
11009;DHT22;5557;51.670;7.788;2023-08-07T13:28:00;20.30;1.00
11009;DHT22;5557;51.670;7.788;2023-08-07T13:30:30;20.60;1.00
11009;DHT22;5557;51.670;7.788;2023-08-07T13:33:02;20.70;1.00
11009;DHT22;5557;51.670;7.788;2023-08-07T13:35:29;20.70;1.00
11009;DHT22;5557;51.670;7.788;2023-08-07T13:37:57;20.60;1.00
11009;DHT22;5557;51.670;7.788;2023-08-07T13:40:24;20.50;1.00
11009;DHT22;5557;51.670;7.788;2023-08-07T13:42:51;20.50;1.00
11009;DHT22;5557;51.670;7.788;2023-08-07T13:45:20;20.50;1.00
11009;DHT22;5557;51.670;7.788;2023-08-07T13:47:47;20.50;1.00
11009;DHT22;5557;51.670;7.788;2023-08-07T13:50:14;20.60;1.00
11009;DHT22;5557;51.670;7.788;2023-08-07T13:52:41;20.70;1.00
11009;DHT22;5557;51.670;7.788;2023-08-07T13:55:08;20.50;1.00
11009;DHT22;5557;51.670;7.788;2023-08-07T13:57:36;20.30;1.00
11009;DHT22;5557;51.670;7.788;2023-08-07T14:00:04;20.30;1.00
11009;DHT22;5557;51.670;7.788;2023-08-07T14:02:31;20.40;1.00
11009;DHT22;5557;51.670;7.788;2023-08-07T14:05:00;20.20;1.00
11009;DHT22;5557;51.670;7.788;2023-08-07T14:07:27;20.10;1.00
11009;DHT22;5557;51.670;7.788;2023-08-07T14:09:55;20.20;1.00
11009;DHT22;5557;51.670;7.788;2023-08-07T14:12:23;20.50;1.00
11009;DHT22;5557;51.670;7.788;2023-08-07T14:14:50;20.70;1.00
11009;DHT22;5557;51.670;7.788;2023-08-07T14:17:16;20.70;1.00
11009;DHT22;5557;51.670;7.788;2023-08-07T14:19:43;20.60;1.00
11009;DHT22;5557;51.670;7.788;2023-08-07T14:22:11;20.30;1.00
11009;DHT22;5557;51.670;7.788;2023-08-07T14:24:38;20.00;1.00
11009;DHT22;5557;51.670;7.788;2023-08-07T14:27:05;19.60;1.00
11009;DHT22;5557;51.670;7.788;2023-08-07T14:29:32;18.90;1.00
11009;DHT22;5557;51.670;7.788;2023-08-07T14:31:59;17.80;13.80
11009;DHT22;5557;51.670;7.788;2023-08-07T14:34:26;16.90;27.80
11009;DHT22;5557;51.670;7.788;2023-08-07T14:36:53;16.60;40.10
11009;DHT22;5557;51.670;7.788;2023-08-07T14:39:21;16.40;42.30
11009;DHT22;5557;51.670;7.788;2023-08-07T14:41:50;16.50;40.20
11009;DHT22;5557;51.670;7.788;2023-08-07T14:44:18;16.60;32.70
11009;DHT22;5557;51.670;7.788;2023-08-07T14:46:45;16.80;28.00
11009;DHT22;5557;51.670;7.788;2023-08-07T14:49:12;17.10;24.00
11009;DHT22;5557;51.670;7.788;2023-08-07T14:51:39;17.50;23.10
11009;DHT22;5557;51.670;7.788;2023-08-07T14:54:06;17.60;10.00
11009;DHT22;5557;51.670;7.788;2023-08-07T14:56:33;17.70;7.90
11009;DHT22;5557;51.670;7.788;2023-08-07T14:59:00;17.70;1.00
11009;DHT22;5557;51.670;7.788;2023-08-07T15:01:27;17.70;1.00
11009;DHT22;5557;51.670;7.788;2023-08-07T15:03:54;17.80;1.00
11009;DHT22;5557;51.670;7.788;2023-08-07T15:06:21;17.90;1.00
11009;DHT22;5557;51.670;7.788;2023-08-07T15:08:48;17.90;1.00
11009;DHT22;5557;51.670;7.788;2023-08-07T15:11:16;18.00;1.00
11009;DHT22;5557;51.670;7.788;2023-08-07T15:13:43;18.10;1.00
11009;DHT22;5557;51.670;7.788;2023-08-07T15:16:10;18.20;1.00
11009;DHT22;5557;51.670;7.788;2023-08-07T15:18:37;18.20;1.00
11009;DHT22;5557;51.670;7.788;2023-08-07T15:21:07;18.10;1.00
11009;DHT22;5557;51.670;7.788;2023-08-07T15:23:34;18.10;1.00
11009;DHT22;5557;51.670;7.788;2023-08-07T15:26:01;18.10;1.00
11009;DHT22;5557;51.670;7.788;2023-08-07T15:28:28;18.10;1.00
11009;DHT22;5557;51.670;7.788;2023-08-07T15:30:55;18.20;1.00
11009;DHT22;5557;51.670;7.788;2023-08-07T15:33:22;18.40;1.00
11009;DHT22;5557;51.670;7.788;2023-08-07T15:35:53;18.50;1.00
11009;DHT22;5557;51.670;7.788;2023-08-07T15:38:20;18.70;1.00
11009;DHT22;5557;51.670;7.788;2023-08-07T15:40:48;18.70;1.00
11009;DHT22;5557;51.670;7.788;2023-08-07T15:43:15;18.80;1.00
11009;DHT22;5557;51.670;7.788;2023-08-07T15:45:44;18.80;1.00
11009;DHT22;5557;51.670;7.788;2023-08-07T15:48:12;18.80;1.00
11009;DHT22;5557;51.670;7.788;2023-08-07T15:50:39;18.70;1.00
11009;DHT22;5557;51.670;7.788;2023-08-07T15:53:08;18.70;1.00
11009;DHT22;5557;51.670;7.788;2023-08-07T15:55:35;18.80;1.00
11009;DHT22;5557;51.670;7.788;2023-08-07T15:58:03;18.90;1.00
11009;DHT22;5557;51.670;7.788;2023-08-07T16:00:31;19.00;1.00